createdAt,value
2018-02-10T00:00:02.517Z,1.17
2018-02-10T00:01:08.287Z,1.13
2018-02-10T00:02:14.440Z,1.06
2018-02-10T00:03:20.649Z,1.09
2018-02-10T00:04:26.840Z,1.13
2018-02-10T00:05:32.702Z,1.15
2018-02-10T00:06:38.865Z,1.17
2018-02-10T00:07:45.045Z,1.19
2018-02-10T00:08:51.237Z,1.21
2018-02-10T00:09:57.401Z,1.21
2018-02-10T00:11:03.533Z,1.21
2018-02-10T00:12:09.663Z,1.12
2018-02-10T00:13:16.745Z,1.14
2018-02-10T00:14:23.208Z,1.13
2018-02-10T00:15:29.416Z,1.04
2018-02-10T00:16:35.632Z,0.99
2018-02-10T00:17:41.803Z,1.05
2018-02-10T00:18:48.012Z,1.11
2018-02-10T00:19:54.200Z,1.10
2018-02-10T00:21:00.383Z,1.05
2018-02-10T00:22:06.289Z,1.10
2018-02-10T00:23:15.125Z,1.14
2018-02-10T00:24:21.953Z,1.17
2018-02-10T00:25:28.101Z,1.13
2018-02-10T00:26:34.260Z,1.13
2018-02-10T00:27:40.477Z,1.10
2018-02-10T00:28:46.623Z,1.01
2018-02-10T00:29:52.856Z,1.04
2018-02-10T00:30:59.014Z,1.01
2018-02-10T00:32:05.196Z,1.01
2018-02-10T00:33:11.377Z,1.08
2018-02-10T00:34:17.548Z,1.07
2018-02-10T00:35:23.732Z,1.09
2018-02-10T00:36:29.856Z,1.16
2018-02-10T00:37:35.996Z,1.18
2018-02-10T00:38:41.913Z,1.13
2018-02-10T00:39:48.098Z,1.17
2018-02-10T00:40:54.876Z,1.15
2018-02-10T00:42:01.072Z,1.10
2018-02-10T00:43:07.256Z,1.05
2018-02-10T00:44:18.670Z,1.07
2018-02-10T00:45:24.841Z,1.02
2018-02-10T00:46:30.989Z,0.96
2018-02-10T00:47:37.197Z,0.93
2018-02-10T00:48:43.409Z,0.99
2018-02-10T00:49:49.606Z,0.93
2018-02-10T00:50:55.793Z,0.97
2018-02-10T00:52:01.981Z,1.01
2018-02-10T00:53:09.229Z,1.08
2018-02-10T00:54:15.417Z,0.98
2018-02-10T00:55:21.653Z,0.92
2018-02-10T00:56:29.819Z,0.95
2018-02-10T00:57:35.980Z,0.94
2018-02-10T00:58:42.256Z,1.02
2018-02-10T00:59:48.491Z,1.03
2018-02-10T01:00:54.654Z,0.99
2018-02-10T01:02:00.853Z,1.03
2018-02-10T01:03:07.051Z,1.07
2018-02-10T01:04:13.230Z,1.07
2018-02-10T01:05:19.353Z,0.97
2018-02-10T01:06:25.287Z,0.91
2018-02-10T01:07:31.449Z,0.84
2018-02-10T01:08:37.656Z,0.81
2018-02-10T01:09:43.885Z,0.83
2018-02-10T01:10:50.024Z,0.89
2018-02-10T01:11:55.912Z,0.92
2018-02-10T01:13:08.974Z,0.96
2018-02-10T01:14:18.588Z,1.03
2018-02-10T01:15:24.765Z,1.05
2018-02-10T01:16:36.421Z,1.10
2018-02-10T01:17:43.362Z,1.10
2018-02-10T01:18:50.308Z,1.04
2018-02-10T01:19:56.475Z,1.06
2018-02-10T01:21:02.667Z,1.06
2018-02-10T01:22:08.817Z,1.09
2018-02-10T01:23:14.955Z,1.09
2018-02-10T01:24:21.128Z,1.01
2018-02-10T01:25:32.337Z,1.00
2018-02-10T01:26:38.594Z,1.00
2018-02-10T01:27:44.770Z,1.06
2018-02-10T01:28:54.849Z,1.06
2018-02-10T01:30:01.213Z,1.01
2018-02-10T01:31:08.375Z,1.04
2018-02-10T01:32:14.580Z,1.07
2018-02-10T01:33:20.813Z,0.99
2018-02-10T01:34:26.977Z,1.05
2018-02-10T01:35:33.115Z,1.10
2018-02-10T01:36:39.244Z,1.06
2018-02-10T01:37:45.403Z,1.01
2018-02-10T01:38:51.621Z,1.05
2018-02-10T01:39:57.795Z,1.03
2018-02-10T01:41:03.970Z,1.09
2018-02-10T01:42:10.162Z,1.12
2018-02-10T01:43:16.333Z,1.13
2018-02-10T01:44:22.521Z,1.11
2018-02-10T01:45:28.706Z,1.12
2018-02-10T01:46:34.813Z,1.07
2018-02-10T01:47:40.961Z,1.02
2018-02-10T01:48:47.101Z,1.02
2018-02-10T02:02:04.177Z,0.91
2018-02-10T02:03:10.304Z,0.94
2018-02-10T02:04:16.472Z,0.98
2018-02-10T02:05:27.721Z,0.98
2018-02-10T02:06:33.894Z,0.91
2018-02-10T02:07:40.023Z,0.89
2018-02-10T02:08:46.189Z,0.89
2018-02-10T02:09:52.383Z,0.94
2018-02-10T02:10:58.576Z,0.85
2018-02-10T02:12:04.693Z,0.84
2018-02-10T02:13:10.839Z,0.79
2018-02-10T02:14:17.457Z,0.78
2018-02-10T02:15:23.818Z,0.79
2018-02-10T02:16:36.186Z,0.87
2018-02-10T02:17:42.409Z,0.83
2018-02-10T02:18:49.190Z,0.80
2018-02-10T02:19:55.935Z,0.92
2018-02-10T02:21:02.194Z,0.89
2018-02-10T02:22:08.602Z,0.93
2018-02-10T02:23:14.765Z,0.92
2018-02-10T02:24:21.104Z,0.99
2018-02-10T02:25:27.360Z,1.02
2018-02-10T02:26:33.791Z,1.02
2018-02-10T02:27:39.964Z,0.98
2018-02-10T02:28:46.084Z,0.99
2018-02-10T02:29:52.228Z,1.03
2018-02-10T02:30:58.464Z,0.99
2018-02-10T02:32:04.683Z,1.01
2018-02-10T02:33:10.943Z,1.05
2018-02-10T02:34:17.772Z,1.05
2018-02-10T02:35:24.428Z,1.07
2018-02-10T02:36:30.647Z,1.03
2018-02-10T02:37:37.176Z,1.04
2018-02-10T02:38:43.555Z,1.03
2018-02-10T02:39:50.086Z,1.05
2018-02-10T02:40:56.327Z,1.02
2018-02-10T02:42:02.657Z,1.04
2018-02-10T02:43:08.838Z,1.00
2018-02-10T02:44:14.966Z,1.03
2018-02-10T02:45:21.764Z,1.01
2018-02-10T02:46:28.388Z,0.98
2018-02-10T02:47:35.031Z,0.98
2018-02-10T02:48:41.636Z,1.01
2018-02-10T02:49:47.432Z,0.98
2018-02-10T02:50:54.095Z,0.94
2018-02-10T02:52:00.322Z,0.91
2018-02-10T02:53:06.827Z,0.94
2018-02-10T02:54:18.536Z,0.90
2018-02-10T02:55:24.688Z,0.86
2018-02-10T02:56:31.182Z,0.85
2018-02-10T02:57:37.389Z,0.87
2018-02-10T02:58:43.613Z,0.92
2018-02-10T02:59:49.786Z,0.99
2018-02-10T03:00:56.099Z,0.97
2018-02-10T03:02:02.365Z,0.94
2018-02-10T03:03:08.626Z,0.96
2018-02-10T03:04:15.094Z,0.97
2018-02-10T03:05:21.281Z,0.95
2018-02-10T03:06:27.436Z,0.98
2018-02-10T03:07:34.021Z,1.02
2018-02-10T03:08:40.636Z,0.99
2018-02-10T03:09:47.162Z,0.96
2018-02-10T03:10:53.881Z,0.91
2018-02-10T03:12:00.342Z,0.93
2018-02-10T03:13:06.478Z,0.97
2018-02-10T03:14:13.065Z,0.98
2018-02-10T03:15:19.234Z,0.97
2018-02-10T03:16:25.430Z,0.89
2018-02-10T03:17:32.100Z,0.92
2018-02-10T03:18:38.560Z,0.96
2018-02-10T03:19:44.796Z,0.97
2018-02-10T03:20:51.881Z,0.95
2018-02-10T03:22:08.421Z,0.88
2018-02-10T03:23:14.610Z,0.90
2018-02-10T03:24:21.065Z,0.88
2018-02-10T03:25:27.243Z,0.89
2018-02-10T03:26:33.774Z,0.94
2018-02-10T03:27:40.036Z,0.83
2018-02-10T03:28:46.335Z,0.79
2018-02-10T03:29:52.516Z,0.77
2018-02-10T03:30:58.760Z,0.76
2018-02-10T03:32:04.930Z,0.87
2018-02-10T03:33:11.362Z,0.92
2018-02-10T03:34:17.541Z,0.94
2018-02-10T03:35:23.687Z,0.90
2018-02-10T03:36:29.929Z,0.94
2018-02-10T03:37:36.207Z,0.95
2018-02-10T03:38:42.348Z,0.93
2018-02-10T03:39:48.625Z,0.95
2018-02-10T03:41:00.106Z,1.00
2018-02-10T03:42:08.136Z,0.99
2018-02-10T03:43:15.087Z,0.95
2018-02-10T03:44:21.440Z,0.92
2018-02-10T03:45:27.958Z,0.94
2018-02-10T03:46:34.095Z,0.91
2018-02-10T03:47:40.771Z,0.87
2018-02-10T03:48:46.800Z,0.87
2018-02-10T03:49:53.300Z,0.91
2018-02-10T03:50:59.643Z,0.86
2018-02-10T03:52:05.826Z,0.80
2018-02-10T03:53:12.489Z,0.82
2018-02-10T03:54:19.121Z,0.85
2018-02-10T03:55:25.311Z,0.83
2018-02-10T03:56:31.763Z,0.78
2018-02-10T03:57:37.999Z,0.83
2018-02-10T03:58:44.203Z,0.85
2018-02-10T03:59:50.387Z,0.91
2018-02-10T04:00:56.536Z,0.96
2018-02-10T04:02:02.435Z,0.99
2018-02-10T04:03:09.392Z,0.93
2018-02-10T04:04:16.420Z,0.93
2018-02-10T04:05:23.232Z,0.90
2018-02-10T04:06:30.258Z,0.88
2018-02-10T04:07:37.215Z,0.91
2018-02-10T04:08:44.208Z,0.91
2018-02-10T04:09:51.237Z,0.86
2018-02-10T04:11:02.517Z,0.86
2018-02-10T04:12:08.691Z,0.92
2018-02-10T04:13:14.820Z,0.94
2018-02-10T04:14:21.055Z,0.95
2018-02-10T04:15:27.703Z,0.89
2018-02-10T04:16:34.726Z,0.95
2018-02-10T04:17:41.328Z,0.98
2018-02-10T04:18:48.297Z,0.99
2018-02-10T04:19:54.737Z,0.99
2018-02-10T04:21:00.887Z,0.93
2018-02-10T04:22:07.086Z,0.84
2018-02-10T04:23:13.276Z,0.86
2018-02-10T04:24:19.556Z,0.90
2018-02-10T04:25:26.361Z,0.93
2018-02-10T04:26:33.232Z,0.87
2018-02-10T04:27:40.057Z,0.90
2018-02-10T04:28:46.246Z,0.88
2018-02-10T04:29:52.436Z,0.99
2018-02-10T04:30:58.659Z,0.97
2018-02-10T04:32:04.871Z,0.95
2018-02-10T04:33:11.374Z,1.01
2018-02-10T04:34:18.088Z,0.95
2018-02-10T04:35:24.241Z,0.97
2018-02-10T04:36:30.509Z,0.92
2018-02-10T04:37:36.812Z,0.91
2018-02-10T04:38:43.943Z,0.91
2018-02-10T04:39:52.260Z,0.95
2018-02-10T04:40:58.668Z,1.01
2018-02-10T04:42:05.860Z,0.98
2018-02-10T04:43:12.025Z,1.02
2018-02-10T04:44:18.176Z,1.05
2018-02-10T04:45:24.328Z,1.06
2018-02-10T04:46:30.515Z,1.10
2018-02-10T04:47:36.702Z,1.03
2018-02-10T04:48:42.902Z,1.03
2018-02-10T04:49:49.105Z,1.07
2018-02-10T04:50:55.277Z,1.07
2018-02-10T04:52:01.465Z,1.03
2018-02-10T04:53:07.822Z,1.06
2018-02-10T04:54:14.004Z,1.02
2018-02-10T04:55:20.151Z,1.02
2018-02-10T04:56:26.307Z,1.07
2018-02-10T04:57:32.471Z,1.11
2018-02-10T04:58:38.694Z,1.11
2018-02-10T04:59:44.820Z,1.14
2018-02-10T05:00:51.017Z,1.18
2018-02-10T05:01:56.865Z,1.14
2018-02-10T05:03:04.066Z,1.18
2018-02-10T05:04:10.328Z,1.20
2018-02-10T05:05:16.467Z,1.19
2018-02-10T05:06:22.662Z,1.25
2018-02-10T05:07:28.913Z,1.30
2018-02-10T05:08:35.090Z,1.30
2018-02-10T05:09:41.246Z,1.27
2018-02-10T05:10:47.375Z,1.24
2018-02-10T05:11:53.529Z,1.25
2018-02-10T05:12:59.732Z,1.22
2018-02-10T05:14:05.872Z,1.15
2018-02-10T05:15:12.067Z,1.16
2018-02-10T05:16:18.229Z,1.12
2018-02-10T05:17:24.392Z,1.11
2018-02-10T05:18:30.623Z,1.17
2018-02-10T05:19:36.858Z,1.15
2018-02-10T05:20:43.003Z,1.19
2018-02-10T05:21:49.196Z,1.15
2018-02-10T05:22:55.672Z,1.18
2018-02-10T05:24:01.856Z,1.17
2018-02-10T05:25:07.993Z,1.05
2018-02-10T05:26:15.352Z,1.07
2018-02-10T05:27:21.502Z,1.17
2018-02-10T05:28:27.750Z,1.13
2018-02-10T05:29:33.899Z,1.13
2018-02-10T05:30:40.050Z,1.12
2018-02-10T05:31:46.213Z,1.14
2018-02-10T05:32:52.428Z,1.08
2018-02-10T05:33:58.621Z,1.12
2018-02-10T05:35:04.812Z,1.09
2018-02-10T05:36:10.987Z,1.05
2018-02-10T05:37:17.199Z,1.06
2018-02-10T05:38:23.534Z,1.05
2018-02-10T05:39:29.663Z,1.07
2018-02-10T05:40:35.865Z,1.08
2018-02-10T05:41:42.012Z,1.06
2018-02-10T05:42:48.270Z,1.05
2018-02-10T05:43:54.385Z,1.06
2018-02-10T05:45:00.545Z,1.05
2018-02-10T05:46:06.753Z,1.05
2018-02-10T05:47:13.337Z,1.04
2018-02-10T05:48:19.541Z,1.06
2018-02-10T05:49:25.830Z,1.02
2018-02-10T05:50:31.985Z,1.02
2018-02-10T05:51:38.233Z,1.04
2018-02-10T05:52:44.537Z,1.08
2018-02-10T05:53:50.727Z,1.13
2018-02-10T05:54:56.859Z,1.09
2018-02-10T05:56:03.087Z,1.04
2018-02-10T05:57:09.264Z,1.08
2018-02-10T05:58:15.821Z,1.08
2018-02-10T05:59:22.010Z,1.08
2018-02-10T06:00:28.204Z,1.06
2018-02-10T06:01:34.374Z,1.06
2018-02-10T06:02:41.637Z,1.09
2018-02-10T06:03:47.827Z,1.05
2018-02-10T06:04:53.979Z,0.99
2018-02-10T06:06:00.172Z,1.04
2018-02-10T06:07:06.357Z,1.11
2018-02-10T06:08:12.623Z,1.02
2018-02-10T06:09:18.798Z,0.97
2018-02-10T06:10:24.962Z,1.00
2018-02-10T06:11:31.392Z,1.01
2018-02-10T06:12:37.505Z,1.05
2018-02-10T06:13:43.682Z,1.07
2018-02-10T06:14:49.900Z,1.02
2018-02-10T06:15:56.070Z,1.04
2018-02-10T06:17:02.299Z,1.07
2018-02-10T06:18:08.476Z,1.09
2018-02-10T06:19:14.634Z,1.12
2018-02-10T06:20:20.836Z,1.10
2018-02-10T06:21:27.059Z,1.14
2018-02-10T06:22:33.044Z,1.15
2018-02-10T06:23:38.900Z,1.21
2018-02-10T06:24:45.105Z,1.24
2018-02-10T06:25:51.224Z,1.26
2018-02-10T06:26:57.362Z,1.29
2018-02-10T06:28:03.533Z,1.29
2018-02-10T06:29:09.720Z,1.31
2018-02-10T06:30:16.140Z,1.31
2018-02-10T06:31:22.341Z,1.27
2018-02-10T06:32:28.539Z,1.30
2018-02-10T06:33:34.722Z,1.29
2018-02-10T06:34:40.893Z,1.29
2018-02-10T06:35:47.040Z,1.27
2018-02-10T06:36:53.208Z,1.29
2018-02-10T06:37:59.399Z,1.31
2018-02-10T06:39:04.881Z,1.33
2018-02-10T06:40:11.085Z,1.34
2018-02-10T06:41:17.268Z,1.32
2018-02-10T06:42:23.476Z,1.33
2018-02-10T06:43:34.909Z,1.33
2018-02-10T06:44:41.084Z,1.37
2018-02-10T06:45:47.208Z,1.35
2018-02-10T06:46:54.619Z,1.45
2018-02-10T06:48:00.831Z,1.45
2018-02-10T06:49:07.136Z,1.40
2018-02-10T06:50:13.350Z,1.37
2018-02-10T06:51:19.585Z,1.42
2018-02-10T06:52:26.008Z,1.37
2018-02-10T06:53:32.197Z,1.38
2018-02-10T06:54:38.384Z,1.37
2018-02-10T06:55:44.577Z,1.37
2018-02-10T06:56:50.759Z,1.39
2018-02-10T06:57:57.975Z,1.39
2018-02-10T06:59:04.519Z,1.39
2018-02-10T07:00:10.524Z,1.39
2018-02-10T07:01:16.694Z,1.41
2018-02-10T07:02:23.021Z,1.42
2018-02-10T07:03:29.299Z,1.41
2018-02-10T07:04:35.498Z,1.40
2018-02-10T07:05:41.715Z,1.45
2018-02-10T07:06:47.925Z,1.44
2018-02-10T07:07:54.076Z,1.43
2018-02-10T07:09:00.328Z,1.44
2018-02-10T07:10:06.508Z,1.44
2018-02-10T07:11:12.733Z,1.48
2018-02-10T07:12:18.563Z,1.49
2018-02-10T07:13:24.760Z,1.49
2018-02-10T07:14:30.941Z,1.49
2018-02-10T07:15:37.151Z,1.49
2018-02-10T07:16:43.286Z,1.48
2018-02-10T07:17:49.497Z,1.38
2018-02-10T07:18:55.709Z,1.28
2018-02-10T07:20:01.983Z,1.25
2018-02-10T07:21:07.913Z,1.31
2018-02-10T07:22:14.138Z,1.35
2018-02-10T07:23:20.324Z,1.42
2018-02-10T07:24:26.536Z,1.35
2018-02-10T07:25:32.901Z,1.42
2018-02-10T07:26:39.019Z,1.47
2018-02-10T07:27:45.225Z,1.55
2018-02-10T07:28:51.423Z,1.59
2018-02-10T07:29:57.654Z,1.63
2018-02-10T07:31:03.815Z,1.60
2018-02-10T07:32:10.281Z,1.64
2018-02-10T07:33:16.439Z,1.65
2018-02-10T07:34:22.648Z,1.64
2018-02-10T07:35:28.829Z,1.60
2018-02-10T07:36:35.026Z,1.61
2018-02-10T07:37:41.163Z,1.61
2018-02-10T07:38:47.356Z,1.62
2018-02-10T07:39:53.513Z,1.63
2018-02-10T07:40:59.665Z,1.60
2018-02-10T07:42:05.919Z,1.60
2018-02-10T07:43:12.150Z,1.61
2018-02-10T07:44:18.268Z,1.65
2018-02-10T07:45:24.472Z,1.70
2018-02-10T07:46:30.695Z,1.68
2018-02-10T07:47:36.925Z,1.68
2018-02-10T07:48:43.207Z,1.74
2018-02-10T07:49:49.396Z,1.79
2018-02-10T07:50:55.592Z,1.78
2018-02-10T07:52:01.765Z,1.72
2018-02-10T07:53:07.971Z,1.68
2018-02-10T07:54:14.160Z,1.58
2018-02-10T07:55:20.385Z,1.64
2018-02-10T07:56:26.578Z,1.67
2018-02-10T07:57:32.792Z,1.58
2018-02-10T07:58:39.027Z,1.51
2018-02-10T07:59:45.183Z,1.63
2018-02-10T08:00:51.367Z,1.66
2018-02-10T08:01:57.688Z,1.72
2018-02-10T08:03:03.829Z,1.72
2018-02-10T08:04:10.059Z,1.76
2018-02-10T08:05:16.212Z,1.77
2018-02-10T08:06:22.435Z,1.79
2018-02-10T08:07:28.627Z,1.81
2018-02-10T08:08:34.856Z,1.79
2018-02-10T08:09:41.107Z,1.77
2018-02-10T08:10:47.284Z,1.74
2018-02-10T08:11:53.817Z,1.74
2018-02-10T08:12:59.972Z,1.75
2018-02-10T08:14:06.154Z,1.73
2018-02-10T08:15:12.369Z,1.71
2018-02-10T08:16:18.596Z,1.73
2018-02-10T08:17:24.716Z,1.71
2018-02-10T08:18:30.901Z,1.69
2018-02-10T08:19:37.074Z,1.77
2018-02-10T08:20:43.613Z,1.74
2018-02-10T08:21:49.761Z,1.69
2018-02-10T08:22:55.962Z,1.70
2018-02-10T08:24:02.174Z,1.64
2018-02-10T08:25:08.343Z,1.68
2018-02-10T08:26:19.557Z,1.66
2018-02-10T08:27:25.688Z,1.70
2018-02-10T08:28:31.890Z,1.75
2018-02-10T08:29:38.072Z,1.77
2018-02-10T08:30:44.286Z,1.79
2018-02-10T08:31:50.500Z,1.85
2018-02-10T08:32:56.708Z,1.91
2018-02-10T08:34:03.008Z,1.91
2018-02-10T08:35:09.216Z,1.89
2018-02-10T08:36:15.356Z,1.89
2018-02-10T08:37:21.547Z,1.89
2018-02-10T08:38:27.759Z,1.88
2018-02-10T08:39:33.868Z,1.88
2018-02-10T08:40:40.102Z,1.85
2018-02-10T08:41:46.304Z,1.84
2018-02-10T08:42:52.660Z,1.86
2018-02-10T08:43:58.823Z,1.88
2018-02-10T08:45:04.259Z,1.87
2018-02-10T08:46:10.422Z,1.87
2018-02-10T08:47:16.612Z,1.90
2018-02-10T08:48:22.740Z,1.89
2018-02-10T08:49:28.937Z,1.90
2018-02-10T08:50:35.131Z,1.90
2018-02-10T08:51:41.235Z,1.89
2018-02-10T08:52:47.428Z,1.89
2018-02-10T08:53:53.656Z,1.90
2018-02-10T08:54:59.833Z,1.93
2018-02-10T08:56:06.018Z,1.94
2018-02-10T08:57:12.187Z,1.89
2018-02-10T08:58:18.355Z,1.74
2018-02-10T08:59:24.616Z,1.74
2018-02-10T09:00:30.840Z,1.57
2018-02-10T09:01:36.996Z,1.50
2018-02-10T09:02:43.120Z,1.51
2018-02-10T09:03:49.345Z,1.58
2018-02-10T09:04:55.527Z,1.51
2018-02-10T09:06:01.818Z,1.51
2018-02-10T09:07:07.976Z,1.57
2018-02-10T09:08:14.131Z,1.58
2018-02-10T09:09:20.292Z,1.54
2018-02-10T09:10:26.540Z,1.52
2018-02-10T09:11:32.753Z,1.40
2018-02-10T09:12:38.944Z,1.40
2018-02-10T09:13:45.096Z,1.45
2018-02-10T09:14:51.309Z,1.40
2018-02-10T09:15:57.540Z,1.45
2018-02-10T09:17:03.698Z,1.49
2018-02-10T09:18:09.931Z,1.47
2018-02-10T09:19:16.108Z,1.49
2018-02-10T09:20:22.347Z,1.61
2018-02-10T09:21:28.746Z,1.73
2018-02-10T09:22:35.023Z,1.77
2018-02-10T09:23:41.195Z,1.91
2018-02-10T09:24:47.396Z,2.02
2018-02-10T09:25:53.590Z,2.12
2018-02-10T09:26:59.772Z,1.98
2018-02-10T09:28:06.089Z,1.93
2018-02-10T09:29:12.311Z,1.87
2018-02-10T09:30:18.494Z,1.97
2018-02-10T09:31:24.711Z,1.96
2018-02-10T09:32:30.943Z,2.01
2018-02-10T09:33:37.145Z,2.17
2018-02-10T09:34:43.360Z,2.05
2018-02-10T09:35:49.599Z,2.06
2018-02-10T09:36:55.816Z,2.11
2018-02-10T09:38:01.903Z,2.28
2018-02-10T09:39:08.148Z,2.22
2018-02-10T09:40:14.318Z,2.17
2018-02-10T09:41:20.508Z,2.19
2018-02-10T09:42:26.850Z,2.15
2018-02-10T09:43:33.118Z,2.18
2018-02-10T09:44:39.293Z,2.40
2018-02-10T09:45:45.523Z,2.58
2018-02-10T09:46:57.901Z,2.51
2018-02-10T09:48:04.186Z,2.56
2018-02-10T09:49:10.424Z,2.69
2018-02-10T09:50:17.261Z,2.59
2018-02-10T09:51:23.947Z,2.42
2018-02-10T09:52:30.200Z,2.42
2018-02-10T09:53:42.115Z,2.43
2018-02-10T09:54:48.367Z,2.66
2018-02-10T09:55:54.596Z,2.67
2018-02-10T09:57:00.755Z,2.41
2018-02-10T09:58:06.949Z,2.40
2018-02-10T09:59:13.204Z,2.42
2018-02-10T10:00:19.504Z,2.59
2018-02-10T10:01:25.668Z,2.61
2018-02-10T10:02:31.860Z,2.49
2018-02-10T10:03:38.119Z,2.40
2018-02-10T10:04:44.628Z,2.46
2018-02-10T10:05:50.850Z,2.61
2018-02-10T10:06:57.019Z,2.56
2018-02-10T10:08:03.281Z,2.52
2018-02-10T10:09:09.192Z,2.66
2018-02-10T10:10:15.468Z,2.54
2018-02-10T10:11:21.661Z,2.53
2018-02-10T10:12:27.879Z,2.72
2018-02-10T10:13:34.110Z,2.84
2018-02-10T10:14:40.321Z,2.83
2018-02-10T10:15:46.570Z,2.68
2018-02-10T10:16:52.800Z,2.72
2018-02-10T10:17:58.687Z,2.93
2018-02-10T10:19:05.204Z,2.86
2018-02-10T10:20:11.426Z,2.85
2018-02-10T10:21:17.631Z,2.96
2018-02-10T10:22:23.583Z,2.99
2018-02-10T10:23:29.796Z,3.09
2018-02-10T10:24:36.061Z,3.28
2018-02-10T10:25:42.236Z,3.38
2018-02-10T10:26:48.490Z,3.46
2018-02-10T10:27:54.706Z,3.55
2018-02-10T10:29:00.930Z,3.54
2018-02-10T10:31:41.532Z,3.64
2018-02-10T10:32:47.711Z,3.66
2018-02-10T10:33:53.899Z,3.84
2018-02-10T10:35:00.369Z,3.84
2018-02-10T10:36:06.589Z,3.77
2018-02-10T10:37:12.780Z,3.68
2018-02-10T10:38:19.115Z,3.80
2018-02-10T10:39:25.273Z,3.88
2018-02-10T10:40:32.161Z,3.95
2018-02-10T10:41:38.523Z,3.66
2018-02-10T10:42:44.694Z,3.41
2018-02-10T10:43:50.937Z,3.55
2018-02-10T10:44:57.254Z,3.67
2018-02-10T10:46:03.505Z,3.73
2018-02-10T10:47:09.754Z,3.54
2018-02-10T10:48:15.957Z,3.62
2018-02-10T10:49:22.883Z,3.63
2018-02-10T10:50:29.092Z,3.63
2018-02-10T10:51:35.013Z,3.34
2018-02-10T10:52:41.206Z,3.26
2018-02-10T10:53:47.419Z,3.41
2018-02-10T10:54:53.636Z,3.48
2018-02-10T10:55:59.993Z,3.45
2018-02-10T10:57:06.200Z,3.25
2018-02-10T10:58:12.087Z,3.42
2018-02-10T10:59:18.669Z,3.64
2018-02-10T11:00:24.897Z,3.78
2018-02-10T11:01:31.727Z,3.66
2018-02-10T11:02:37.864Z,3.78
2018-02-10T11:03:44.414Z,3.90
2018-02-10T11:04:50.665Z,4.08
2018-02-10T11:05:57.743Z,4.25
2018-02-10T11:07:04.593Z,4.39
2018-02-10T11:08:10.796Z,4.51
2018-02-10T11:09:17.006Z,4.47
2018-02-10T11:10:25.266Z,4.56
2018-02-10T11:11:31.542Z,4.69
2018-02-10T11:12:38.231Z,4.60
2018-02-10T11:13:44.487Z,4.69
2018-02-10T11:14:50.824Z,4.66
2018-02-10T11:15:57.260Z,4.33
2018-02-10T11:17:03.617Z,4.30
2018-02-10T11:18:09.980Z,4.51
2018-02-10T11:19:16.227Z,4.60
2018-02-10T11:20:22.859Z,4.69
2018-02-10T11:21:29.140Z,4.61
2018-02-10T11:22:35.376Z,4.66
2018-02-10T11:23:42.395Z,4.62
2018-02-10T11:24:48.935Z,4.71
2018-02-10T11:26:07.429Z,4.70
2018-02-10T11:27:13.707Z,4.64
2018-02-10T11:28:19.933Z,4.65
2018-02-10T11:29:26.940Z,4.76
2018-02-10T11:30:33.237Z,4.82
2018-02-10T11:31:40.478Z,4.88
2018-02-10T11:32:47.270Z,4.94
2018-02-10T11:33:58.376Z,4.95
2018-02-10T11:35:04.641Z,4.92
2018-02-10T11:36:10.995Z,5.03
2018-02-10T11:37:17.966Z,4.96
2018-02-10T11:38:24.240Z,5.00
2018-02-10T11:39:30.575Z,4.99
2018-02-10T11:40:37.018Z,5.00
2018-02-10T11:41:43.284Z,4.96
2018-02-10T11:42:49.519Z,4.75
2018-02-10T11:43:55.545Z,4.83
2018-02-10T11:45:01.789Z,4.81
2018-02-10T11:46:08.047Z,4.76
2018-02-10T11:47:15.171Z,4.86
2018-02-10T11:48:21.423Z,4.56
2018-02-10T11:49:27.921Z,4.70
2018-02-10T11:50:33.879Z,4.49
2018-02-10T11:51:40.866Z,4.19
2018-02-10T11:52:47.241Z,4.05
2018-02-10T11:53:53.521Z,4.31
2018-02-10T11:55:00.068Z,4.45
2018-02-10T11:56:06.398Z,4.63
2018-02-10T11:57:13.579Z,4.66
2018-02-10T11:58:19.677Z,4.74
2018-02-10T11:59:26.199Z,4.78
2018-02-10T12:00:32.859Z,4.87
2018-02-10T12:01:39.405Z,4.93
2018-02-10T12:02:45.779Z,4.96
2018-02-10T12:03:51.986Z,4.78
2018-02-10T12:04:58.363Z,4.90
2018-02-10T12:06:04.679Z,5.05
2018-02-10T12:07:10.967Z,5.05
2018-02-10T12:08:23.335Z,5.03
2018-02-10T12:09:30.394Z,5.13
2018-02-10T12:10:36.670Z,5.07
2018-02-10T12:11:42.841Z,5.16
2018-02-10T12:12:49.322Z,5.26
2018-02-10T12:13:55.692Z,5.32
2018-02-10T12:15:01.962Z,5.25
2018-02-10T12:16:08.276Z,5.39
2018-02-10T12:17:16.987Z,5.37
2018-02-10T12:18:25.464Z,5.39
2018-02-10T12:19:32.108Z,5.51
2018-02-10T12:20:38.718Z,5.49
2018-02-10T12:21:45.349Z,5.53
2018-02-10T12:22:51.631Z,5.61
2018-02-10T12:23:58.015Z,5.48
2018-02-10T12:25:03.757Z,5.47
2018-02-10T12:26:10.097Z,5.49
2018-02-10T12:27:16.748Z,5.43
2018-02-10T12:28:22.956Z,5.40
2018-02-10T12:29:29.338Z,5.33
2018-02-10T12:30:35.621Z,5.30
2018-02-10T12:31:41.912Z,5.03
2018-02-10T12:32:48.151Z,5.18
2018-02-10T12:33:55.141Z,5.08
2018-02-10T12:35:01.730Z,5.25
2018-02-10T12:36:07.851Z,5.34
2018-02-10T12:37:14.719Z,5.31
2018-02-10T12:38:21.099Z,5.19
2018-02-10T12:39:28.181Z,5.13
2018-02-10T12:40:34.612Z,5.31
2018-02-10T12:41:40.544Z,5.27
2018-02-10T12:42:46.814Z,5.26
2018-02-10T12:43:53.159Z,5.29
2018-02-10T12:44:59.448Z,5.28
2018-02-10T12:46:05.878Z,5.27
2018-02-10T12:47:12.267Z,5.41
2018-02-10T12:48:24.574Z,5.22
2018-02-10T12:49:30.658Z,5.18
2018-02-10T12:50:36.882Z,5.24
2018-02-10T12:51:43.147Z,5.30
2018-02-10T12:52:49.572Z,5.37
2018-02-10T12:53:57.189Z,5.44
2018-02-10T12:55:03.505Z,5.50
2018-02-10T12:56:09.938Z,5.44
2018-02-10T12:57:16.330Z,5.38
2018-02-10T12:58:22.649Z,5.36
2018-02-10T12:59:28.934Z,5.33
2018-02-10T13:00:35.233Z,5.34
2018-02-10T13:01:42.414Z,5.41
2018-02-10T13:02:48.736Z,5.41
2018-02-10T13:03:55.729Z,5.34
2018-02-10T13:05:02.201Z,5.30
2018-02-10T13:06:08.488Z,5.27
2018-02-10T13:07:14.832Z,5.29
2018-02-10T13:08:21.301Z,5.38
2018-02-10T13:09:27.763Z,5.30
2018-02-10T13:10:34.068Z,5.21
2018-02-10T13:11:40.735Z,5.23
2018-02-10T13:12:47.057Z,5.21
2018-02-10T13:13:55.057Z,5.01
2018-02-10T13:15:01.528Z,5.11
2018-02-10T13:16:07.869Z,5.05
2018-02-10T13:17:17.971Z,5.02
2018-02-10T13:18:24.421Z,4.96
2018-02-10T13:19:30.811Z,5.04
2018-02-10T13:20:37.493Z,5.04
2018-02-10T13:21:43.878Z,5.08
2018-02-10T13:22:50.211Z,4.97
2018-02-10T13:23:56.670Z,5.03
2018-02-10T13:25:03.238Z,5.02
2018-02-10T13:26:10.228Z,4.98
2018-02-10T13:27:21.372Z,4.98
2018-02-10T13:28:27.542Z,4.79
2018-02-10T13:29:34.277Z,4.81
2018-02-10T13:30:41.434Z,4.85
2018-02-10T13:31:48.641Z,4.83
2018-02-10T13:32:54.696Z,4.76
2018-02-10T13:34:01.019Z,4.77
2018-02-10T13:35:07.251Z,4.82
2018-02-10T13:36:13.479Z,4.88
2018-02-10T13:37:19.677Z,4.93
2018-02-10T13:38:26.097Z,5.00
2018-02-10T13:39:32.485Z,5.04
2018-02-10T13:40:39.732Z,5.06
2018-02-10T13:41:45.999Z,5.04
2018-02-10T13:42:52.578Z,5.04
2018-02-10T13:43:58.871Z,4.96
2018-02-10T13:45:05.634Z,4.96
2018-02-10T13:46:11.552Z,4.94
2018-02-10T13:47:17.900Z,5.03
2018-02-10T13:48:35.114Z,5.11
2018-02-10T13:49:41.524Z,5.07
2018-02-10T13:50:47.938Z,5.06
2018-02-10T13:51:55.111Z,5.11
2018-02-10T13:53:01.517Z,5.12
2018-02-10T13:54:07.827Z,5.15
2018-02-10T13:55:14.195Z,5.20
2018-02-10T13:56:20.895Z,5.18
2018-02-10T13:57:27.313Z,5.20
2018-02-10T13:58:34.295Z,5.18
2018-02-10T13:59:40.592Z,5.09
2018-02-10T14:00:46.968Z,5.03
2018-02-10T14:01:54.489Z,5.03
2018-02-10T14:03:01.601Z,4.99
2018-02-10T14:04:07.840Z,5.05
2018-02-10T14:05:14.110Z,5.07
2018-02-10T14:06:20.366Z,5.07
2018-02-10T14:07:26.703Z,5.08
2018-02-10T14:08:33.248Z,5.10
2018-02-10T14:09:39.335Z,5.07
2018-02-10T14:10:46.529Z,5.12
2018-02-10T14:11:53.793Z,5.11
2018-02-10T14:13:01.001Z,5.00
2018-02-10T14:14:07.972Z,4.93
2018-02-10T14:15:14.765Z,4.97
2018-02-10T14:16:22.289Z,5.06
2018-02-10T14:17:30.974Z,5.02
2018-02-10T14:18:39.035Z,4.95
2018-02-10T14:19:45.783Z,4.97
2018-02-10T14:20:53.525Z,5.01
2018-02-10T14:22:00.937Z,4.91
2018-02-10T14:23:07.737Z,4.94
2018-02-10T14:24:20.072Z,4.89
2018-02-10T14:25:26.869Z,4.87
2018-02-10T14:26:34.140Z,4.88
2018-02-10T14:27:41.636Z,4.77
2018-02-10T14:28:48.735Z,4.84
2018-02-10T14:29:55.714Z,4.87
2018-02-10T14:31:02.283Z,4.96
2018-02-10T14:32:10.088Z,4.86
2018-02-10T14:33:16.709Z,4.84
2018-02-10T14:34:22.912Z,4.79
2018-02-10T14:35:29.658Z,4.83
2018-02-10T14:36:38.342Z,4.76
2018-02-10T14:37:45.743Z,4.81
2018-02-10T14:38:52.797Z,4.79
2018-02-10T14:39:59.685Z,4.78
2018-02-10T14:41:06.662Z,4.85
2018-02-10T14:42:13.302Z,4.83
2018-02-10T14:43:20.888Z,4.81
2018-02-10T14:44:27.492Z,4.86
2018-02-10T14:45:34.404Z,4.91
2018-02-10T14:46:41.090Z,4.94
2018-02-10T14:47:49.143Z,4.92
2018-02-10T14:48:55.959Z,4.92
2018-02-10T14:50:03.649Z,4.80
2018-02-10T14:51:10.666Z,4.88
2018-02-10T14:52:17.621Z,4.96
2018-02-10T14:53:24.611Z,4.78
2018-02-10T14:54:31.348Z,4.69
2018-02-10T14:55:38.351Z,4.62
2018-02-10T14:56:44.637Z,4.57
2018-02-10T14:57:51.365Z,4.55
2018-02-10T14:58:58.055Z,4.50